createdAt,value
2023-05-14T00:01:52.729Z,11.29
2023-05-14T00:04:00.862Z,11.29
2023-05-14T00:06:09.802Z,11.33
2023-05-14T00:08:17.821Z,11.27
2023-05-14T00:10:29.660Z,11.26
2023-05-14T00:12:37.776Z,11.32
2023-05-14T00:14:46.024Z,11.27
2023-05-14T00:16:54.026Z,11.26
2023-05-14T00:19:03.049Z,11.28
2023-05-14T00:21:11.645Z,11.28
2023-05-14T00:23:19.565Z,11.18
2023-05-14T00:25:30.828Z,11.14
2023-05-14T00:27:39.192Z,11.11
2023-05-14T00:29:47.810Z,11.01
2023-05-14T00:31:56.526Z,11.06
2023-05-14T00:34:04.753Z,11.10
2023-05-14T00:36:12.787Z,11.06
2023-05-14T00:38:24.448Z,11.06
2023-05-14T00:40:35.507Z,10.95
2023-05-14T00:42:43.636Z,10.79
2023-05-14T00:44:51.712Z,10.75
2023-05-14T00:46:59.912Z,10.71
2023-05-14T00:49:08.499Z,10.72
2023-05-14T00:51:16.852Z,10.62
2023-05-14T00:53:25.400Z,10.55
2023-05-14T00:55:36.960Z,10.49
2023-05-14T00:57:45.461Z,10.49
2023-05-14T00:59:53.635Z,10.34
2023-05-14T01:02:01.911Z,10.24
2023-05-14T01:04:13.054Z,10.11
2023-05-14T01:06:27.868Z,10.06
2023-05-14T01:08:43.546Z,10.00
2023-05-14T01:11:08.202Z,9.96
2023-05-14T01:13:35.017Z,9.89
2023-05-14T01:15:43.230Z,9.83
2023-05-14T01:17:55.361Z,9.72
2023-05-14T01:20:03.778Z,9.74
2023-05-14T01:22:15.546Z,9.73
2023-05-14T01:24:23.844Z,9.73
2023-05-14T01:26:34.600Z,9.66
2023-05-14T01:28:43.838Z,9.56
2023-05-14T01:30:56.574Z,9.51
2023-05-14T01:33:10.073Z,9.53
2023-05-14T01:35:19.105Z,9.46
2023-05-14T01:37:33.176Z,9.45
2023-05-14T01:39:45.445Z,9.41
2023-05-14T01:41:55.310Z,9.42
2023-05-14T01:44:04.077Z,9.39
2023-05-14T01:46:12.620Z,9.37
2023-05-14T01:48:20.732Z,9.40
2023-05-14T01:50:28.838Z,9.44
2023-05-14T01:52:39.509Z,9.43
2023-05-14T01:54:47.641Z,9.42
2023-05-14T01:56:55.600Z,9.44
2023-05-14T01:59:03.772Z,9.44
2023-05-14T02:01:11.961Z,9.43
2023-05-14T02:03:20.177Z,9.37
2023-05-14T02:05:28.143Z,9.37
2023-05-14T02:07:40.724Z,9.47
2023-05-14T02:09:50.078Z,9.52
2023-05-14T02:11:58.079Z,9.54
2023-05-14T02:14:06.079Z,9.66
2023-05-14T02:16:14.047Z,9.66
2023-05-14T02:18:22.170Z,9.66
2023-05-14T02:20:30.169Z,9.71
2023-05-14T02:22:42.449Z,9.68
2023-05-14T02:24:51.716Z,9.73
2023-05-14T02:27:01.226Z,9.65
2023-05-14T02:29:09.284Z,9.73
2023-05-14T02:31:19.267Z,9.86
2023-05-14T02:33:27.352Z,9.91
2023-05-14T02:35:37.614Z,9.91
2023-05-14T02:37:52.029Z,9.93
2023-05-14T02:40:00.256Z,10.00
2023-05-14T02:42:09.819Z,9.99
2023-05-14T02:44:17.759Z,9.99
2023-05-14T02:46:26.209Z,10.01
2023-05-14T02:48:34.338Z,9.91
2023-05-14T02:50:43.113Z,9.90
2023-05-14T02:52:54.028Z,9.92
2023-05-14T02:55:02.616Z,10.05
2023-05-14T02:57:10.668Z,10.09
2023-05-14T02:59:18.852Z,10.11
2023-05-14T03:01:27.228Z,10.13
2023-05-14T03:04:04.274Z,10.22
2023-05-14T03:06:12.368Z,10.12
2023-05-14T03:08:22.988Z,10.13
2023-05-14T03:10:33.133Z,10.18
2023-05-14T03:12:41.118Z,10.20
2023-05-14T03:14:49.371Z,10.22
2023-05-14T03:16:57.409Z,10.20
2023-05-14T03:19:05.800Z,10.18
2023-05-14T03:21:14.116Z,10.17
2023-05-14T03:23:24.946Z,10.25
2023-05-14T03:25:37.406Z,10.25
2023-05-14T03:27:45.511Z,10.27
2023-05-14T03:29:53.818Z,10.33
2023-05-14T03:32:01.878Z,10.29
2023-05-14T03:34:09.858Z,10.31
2023-05-14T03:36:17.923Z,10.29
2023-05-14T03:38:28.947Z,10.18
2023-05-14T03:40:37.705Z,10.23
2023-05-14T03:42:49.248Z,10.16
2023-05-14T03:44:57.549Z,10.24
2023-05-14T03:47:05.497Z,10.23
2023-05-14T03:49:13.736Z,10.27
2023-05-14T03:51:24.287Z,10.23
2023-05-14T03:53:34.875Z,10.24
2023-05-14T03:55:42.882Z,10.27
2023-05-14T03:57:52.636Z,10.35
2023-05-14T04:00:01.178Z,10.30
2023-05-14T04:02:09.495Z,10.33
2023-05-14T04:04:17.976Z,10.32
2023-05-14T04:06:26.047Z,10.35
2023-05-14T04:08:37.166Z,10.38
2023-05-14T04:10:46.546Z,10.27
2023-05-14T04:12:55.364Z,10.35
2023-05-14T04:15:07.151Z,10.36
2023-05-14T04:17:15.485Z,10.30
2023-05-14T04:19:23.487Z,10.33
2023-05-14T04:21:31.385Z,10.37
2023-05-14T04:23:41.899Z,10.31
2023-05-14T04:25:52.225Z,10.24
2023-05-14T04:28:00.252Z,10.26
2023-05-14T04:30:09.859Z,10.32
2023-05-14T04:32:18.014Z,10.22
2023-05-14T04:34:26.726Z,10.24
2023-05-14T04:36:34.630Z,10.27
2023-05-14T04:38:45.645Z,10.22
2023-05-14T04:40:53.527Z,10.27
2023-05-14T04:43:01.437Z,10.29
2023-05-14T04:45:13.730Z,10.34
2023-05-14T04:47:21.684Z,10.33
2023-05-14T04:49:29.857Z,10.35
2023-05-14T04:51:37.684Z,10.44
2023-05-14T04:53:48.465Z,10.52
2023-05-14T04:55:58.477Z,10.39
2023-05-14T04:58:06.671Z,10.40
2023-05-14T05:00:16.178Z,10.47
2023-05-14T05:02:24.319Z,10.45
2023-05-14T05:04:32.696Z,10.37
2023-05-14T05:06:40.609Z,10.32
2023-05-14T05:08:51.170Z,10.39
2023-05-14T05:10:59.381Z,10.35
2023-05-14T05:13:07.490Z,10.37
2023-05-14T05:15:15.712Z,10.44
2023-05-14T05:17:24.337Z,10.44
2023-05-14T05:19:43.250Z,10.48
2023-05-14T05:21:52.587Z,10.56
2023-05-14T05:24:03.713Z,10.57
2023-05-14T05:26:11.845Z,10.64
2023-05-14T05:28:20.148Z,10.67
2023-05-14T05:30:28.271Z,10.69
2023-05-14T05:32:37.269Z,10.68
2023-05-14T05:34:45.573Z,10.68
2023-05-14T05:36:53.494Z,10.59
2023-05-14T05:39:04.055Z,10.56
2023-05-14T05:41:13.204Z,10.67
2023-05-14T05:43:21.534Z,10.65
2023-05-14T05:45:31.648Z,10.75
2023-05-14T05:47:42.143Z,10.66
2023-05-14T05:49:50.191Z,10.71
2023-05-14T05:51:58.412Z,10.85
2023-05-14T05:54:08.918Z,10.76
2023-05-14T05:56:16.819Z,10.70
2023-05-14T05:58:27.390Z,10.68
2023-05-14T06:00:35.480Z,10.73
2023-05-14T06:02:45.892Z,10.68
2023-05-14T06:04:54.114Z,10.74
2023-05-14T06:07:02.282Z,10.77
2023-05-14T06:09:13.495Z,10.80
2023-05-14T06:11:22.068Z,10.82
2023-05-14T06:13:30.212Z,10.97
2023-05-14T06:15:40.586Z,11.02
2023-05-14T06:17:48.710Z,11.10
2023-05-14T06:19:59.884Z,11.20
2023-05-14T06:22:09.596Z,11.33
2023-05-14T06:24:20.655Z,11.36
2023-05-14T06:26:29.489Z,11.49
2023-05-14T06:28:37.888Z,11.46
2023-05-14T06:30:46.098Z,11.58
2023-05-14T06:32:54.909Z,11.68
2023-05-14T06:35:02.934Z,11.83
2023-05-14T06:37:10.920Z,11.76
2023-05-14T06:39:21.714Z,11.97
2023-05-14T06:41:30.183Z,12.05
2023-05-14T06:43:38.223Z,12.02
2023-05-14T06:45:46.295Z,12.13
2023-05-14T06:47:55.416Z,12.12
2023-05-14T06:50:03.767Z,12.11
2023-05-14T06:52:14.048Z,12.31
2023-05-14T06:54:24.898Z,12.33
2023-05-14T06:56:32.858Z,12.44
2023-05-14T06:58:43.929Z,12.59
2023-05-14T07:00:51.868Z,12.75
2023-05-14T07:02:59.865Z,12.68
2023-05-14T07:05:08.837Z,12.82
2023-05-14T07:07:20.831Z,12.93
2023-05-14T07:09:33.794Z,13.10
2023-05-14T07:11:41.856Z,13.30
2023-05-14T07:13:50.092Z,13.32
2023-05-14T07:15:58.685Z,13.26
2023-05-14T07:18:07.425Z,13.31
2023-05-14T07:20:16.269Z,13.38
2023-05-14T07:22:24.231Z,13.42
2023-05-14T07:24:37.370Z,13.59
2023-05-14T07:26:45.776Z,13.78
2023-05-14T07:28:55.802Z,13.87
2023-05-14T07:31:05.244Z,13.94
2023-05-14T07:33:15.611Z,14.02
2023-05-14T07:35:23.781Z,13.98
2023-05-14T07:37:33.900Z,14.31
2023-05-14T07:39:45.074Z,14.28
2023-05-14T07:41:54.948Z,14.40
2023-05-14T07:44:03.497Z,14.61
2023-05-14T07:46:11.735Z,14.70
2023-05-14T07:48:22.595Z,14.67
2023-05-14T07:50:31.246Z,14.78
2023-05-14T07:52:39.467Z,15.02
2023-05-14T07:54:50.773Z,15.19
2023-05-14T07:56:58.979Z,15.13
2023-05-14T07:59:07.378Z,15.33
2023-05-14T08:01:16.313Z,15.04
2023-05-14T08:03:24.389Z,15.22
2023-05-14T08:05:44.630Z,15.36
2023-05-14T08:07:52.530Z,15.54
2023-05-14T08:10:03.633Z,15.71
2023-05-14T08:12:12.324Z,16.18
2023-05-14T08:14:21.672Z,16.08
2023-05-14T08:16:29.818Z,16.44
2023-05-14T08:18:38.172Z,16.79
2023-05-14T08:20:47.498Z,17.31
2023-05-14T08:22:59.446Z,18.09
2023-05-14T08:25:11.335Z,18.44
2023-05-14T08:27:19.899Z,18.84
2023-05-14T08:29:29.246Z,19.20
2023-05-14T08:31:37.396Z,19.04
2023-05-14T08:33:46.112Z,19.81
2023-05-14T08:35:55.093Z,20.16
2023-05-14T08:38:03.060Z,20.30
2023-05-14T08:40:17.125Z,20.37
2023-05-14T08:42:28.202Z,19.97
2023-05-14T08:44:59.037Z,19.52
2023-05-14T08:47:09.776Z,18.97
2023-05-14T08:49:25.012Z,18.21
2023-05-14T08:51:34.709Z,17.67
2023-05-14T08:53:43.767Z,17.48
2023-05-14T08:55:55.014Z,17.07
2023-05-14T08:58:03.114Z,16.79
2023-05-14T09:00:14.562Z,16.60
2023-05-14T09:02:25.928Z,16.52
2023-05-14T09:04:35.727Z,16.38
2023-05-14T09:06:46.189Z,16.19
2023-05-14T09:08:54.118Z,16.16
2023-05-14T09:11:04.678Z,16.30
2023-05-14T09:13:12.614Z,16.39
2023-05-14T09:15:20.847Z,16.87
2023-05-14T09:17:30.526Z,17.21
2023-05-14T09:19:40.402Z,17.69
2023-05-14T09:21:49.556Z,18.03
2023-05-14T09:24:00.065Z,17.87
2023-05-14T09:26:11.530Z,17.98
2023-05-14T09:28:21.400Z,17.96
2023-05-14T09:30:29.659Z,17.86
2023-05-14T09:32:46.299Z,17.51
2023-05-14T09:34:55.797Z,17.82
2023-05-14T09:37:05.634Z,17.78
2023-05-14T09:39:13.562Z,17.56
2023-05-14T09:41:38.960Z,17.50
2023-05-14T09:43:47.280Z,17.85
2023-05-14T09:45:55.377Z,17.88
2023-05-14T09:48:04.417Z,17.43
2023-05-14T09:50:13.030Z,17.55
2023-05-14T09:52:22.492Z,17.47
2023-05-14T09:54:34.617Z,17.08
2023-05-14T09:56:49.636Z,16.68
2023-05-14T09:59:00.969Z,16.12
2023-05-14T10:01:18.212Z,16.24
2023-05-14T10:03:30.344Z,17.16
2023-05-14T10:05:39.209Z,17.48
2023-05-14T10:07:50.999Z,17.69
2023-05-14T10:10:06.445Z,16.83
2023-05-14T10:12:25.230Z,16.74
2023-05-14T10:14:39.780Z,17.17
2023-05-14T10:16:51.705Z,17.67
2023-05-14T10:19:07.930Z,17.28
2023-05-14T10:21:18.285Z,17.31
2023-05-14T10:23:27.944Z,16.44
2023-05-14T10:25:40.531Z,15.93
2023-05-14T10:27:52.391Z,16.13
2023-05-14T10:30:09.208Z,16.24
2023-05-14T10:32:20.902Z,16.54
2023-05-14T10:34:37.944Z,16.02
2023-05-14T10:36:47.597Z,16.27
2023-05-14T10:38:59.267Z,17.76
2023-05-14T10:41:11.092Z,19.61
2023-05-14T10:43:23.760Z,20.08
2023-05-14T10:45:40.313Z,19.82
2023-05-14T10:47:50.332Z,18.09
2023-05-14T10:50:01.958Z,17.57
2023-05-14T10:52:11.862Z,18.09
2023-05-14T10:54:27.247Z,19.16
2023-05-14T10:56:37.374Z,19.61
2023-05-14T10:58:49.150Z,18.13
2023-05-14T11:01:01.398Z,17.89
2023-05-14T11:03:10.310Z,18.42
2023-05-14T11:05:20.052Z,19.52
2023-05-14T11:07:33.053Z,19.74
2023-05-14T11:09:41.622Z,19.59
2023-05-14T11:11:49.823Z,17.93
2023-05-14T11:14:00.865Z,17.18
2023-05-14T11:16:21.826Z,16.59
2023-05-14T11:18:33.845Z,17.00
2023-05-14T11:20:44.894Z,17.74
2023-05-14T11:22:56.885Z,17.62
2023-05-14T11:25:09.592Z,17.60
2023-05-14T11:27:21.790Z,18.66
2023-05-14T11:29:32.577Z,18.20
2023-05-14T11:31:41.703Z,17.72
2023-05-14T11:33:49.995Z,18.25
2023-05-14T11:36:05.302Z,17.40
2023-05-14T11:38:21.392Z,17.25
2023-05-14T11:40:29.708Z,17.69
2023-05-14T11:42:37.756Z,17.33
2023-05-14T11:44:49.741Z,17.88
2023-05-14T11:46:59.699Z,18.44
2023-05-14T11:49:13.099Z,18.72
2023-05-14T11:51:24.801Z,18.82
2023-05-14T11:53:33.634Z,18.61
2023-05-14T11:55:42.044Z,18.07
2023-05-14T11:57:50.083Z,18.40
2023-05-14T12:00:03.182Z,18.47
2023-05-14T12:02:14.991Z,17.97
2023-05-14T12:04:23.867Z,18.34
2023-05-14T12:06:34.542Z,18.70
2023-05-14T12:08:47.568Z,18.60
2023-05-14T12:10:59.062Z,18.49
2023-05-14T12:13:10.585Z,19.13
2023-05-14T12:15:22.287Z,19.41
2023-05-14T12:17:31.422Z,19.17
2023-05-14T12:19:43.599Z,18.99
2023-05-14T12:21:55.302Z,19.22
2023-05-14T12:24:03.793Z,18.87
2023-05-14T12:26:13.578Z,18.39
2023-05-14T12:28:22.630Z,18.36
2023-05-14T12:30:41.481Z,18.49
2023-05-14T12:32:52.089Z,18.23
2023-05-14T12:35:01.352Z,18.24
2023-05-14T12:37:10.218Z,17.84
2023-05-14T12:39:18.177Z,18.24
2023-05-14T12:41:27.254Z,18.68
2023-05-14T12:43:37.487Z,18.83
2023-05-14T12:45:49.913Z,17.91
2023-05-14T12:47:59.462Z,17.57
2023-05-14T12:50:13.957Z,17.21
2023-05-14T12:52:36.858Z,17.11
2023-05-14T12:54:47.726Z,16.49
2023-05-14T12:56:56.675Z,16.37
2023-05-14T12:59:09.616Z,16.46
2023-05-14T13:01:21.926Z,16.21
2023-05-14T13:03:32.070Z,16.36
2023-05-14T13:05:40.888Z,16.26
2023-05-14T13:07:48.863Z,16.69
2023-05-14T13:09:56.790Z,16.53
2023-05-14T13:12:07.374Z,16.22
2023-05-14T13:14:18.989Z,16.34
2023-05-14T13:16:34.859Z,16.30
2023-05-14T13:18:42.834Z,16.29
2023-05-14T13:20:50.840Z,16.22
2023-05-14T13:23:00.312Z,16.16
2023-05-14T13:25:11.891Z,16.31
2023-05-14T13:27:21.141Z,16.01
2023-05-14T13:29:32.392Z,15.99
2023-05-14T13:31:43.198Z,15.93
2023-05-14T13:33:55.366Z,15.85
2023-05-14T13:36:03.726Z,16.09
2023-05-14T13:38:11.694Z,16.26
2023-05-14T13:40:21.275Z,16.25
2023-05-14T13:42:30.296Z,16.27
2023-05-14T13:44:40.492Z,16.26
2023-05-14T13:46:52.734Z,16.50
2023-05-14T13:49:00.885Z,16.81
2023-05-14T13:51:13.499Z,17.31
2023-05-14T13:53:22.021Z,17.38
2023-05-14T13:55:29.861Z,17.44
2023-05-14T13:57:39.927Z,17.27
2023-05-14T13:59:49.871Z,16.84
2023-05-14T14:02:00.773Z,17.01
2023-05-14T14:04:08.754Z,17.35
2023-05-14T14:06:16.588Z,17.50
2023-05-14T14:08:24.859Z,17.37
2023-05-14T14:10:35.660Z,17.58
2023-05-14T14:12:43.924Z,17.42
2023-05-14T14:14:54.525Z,17.78
2023-05-14T14:17:19.409Z,18.29
2023-05-14T14:19:31.276Z,18.03
2023-05-14T14:21:43.840Z,18.02
2023-05-14T14:23:55.573Z,18.13
2023-05-14T14:26:04.653Z,18.28
2023-05-14T14:28:20.753Z,17.54
2023-05-14T14:30:29.406Z,17.06
2023-05-14T14:32:44.044Z,16.73
2023-05-14T14:34:52.955Z,16.55
2023-05-14T14:37:01.482Z,16.46
2023-05-14T14:39:18.562Z,16.54
2023-05-14T14:41:29.357Z,16.62
2023-05-14T14:43:47.952Z,16.39
2023-05-14T14:46:06.769Z,16.32
2023-05-14T14:48:34.614Z,16.26
2023-05-14T14:51:06.481Z,16.12
2023-05-14T14:53:18.452Z,16.09
2023-05-14T14:55:29.643Z,16.08
2023-05-14T14:57:42.003Z,16.02
2023-05-14T14:59:52.279Z,15.91
2023-05-14T15:02:13.216Z,15.84
2023-05-14T15:04:24.380Z,15.85
2023-05-14T15:06:47.251Z,15.74
2023-05-14T15:08:57.219Z,15.78
2023-05-14T15:11:06.536Z,15.77
2023-05-14T15:13:15.594Z,15.78
2023-05-14T15:15:24.162Z,15.72
2023-05-14T15:17:34.528Z,15.85
2023-05-14T15:19:45.023Z,15.70
2023-05-14T15:21:53.379Z,15.73
2023-05-14T15:24:06.436Z,15.81
2023-05-14T15:26:17.448Z,15.78
2023-05-14T15:28:25.355Z,15.70
2023-05-14T15:30:33.550Z,15.78
2023-05-14T15:32:41.717Z,15.87
2023-05-14T15:34:52.469Z,15.90
2023-05-14T15:37:00.747Z,15.77
2023-05-14T15:39:10.540Z,15.82
2023-05-14T15:41:19.032Z,15.84
2023-05-14T15:43:33.880Z,15.88
2023-05-14T15:45:46.277Z,15.89
2023-05-14T15:47:54.688Z,15.76
2023-05-14T15:50:05.877Z,15.58
2023-05-14T15:52:17.027Z,15.73
2023-05-14T15:54:26.436Z,15.75
2023-05-14T15:56:37.673Z,15.68
2023-05-14T15:58:46.192Z,15.81
2023-05-14T16:00:55.020Z,15.71
2023-05-14T16:03:08.757Z,15.77
2023-05-14T16:05:23.004Z,15.70
2023-05-14T16:07:31.990Z,15.75
2023-05-14T16:09:41.615Z,15.86
2023-05-14T16:11:49.857Z,15.80
2023-05-14T16:13:58.646Z,15.77
2023-05-14T16:16:06.935Z,15.86
2023-05-14T16:18:15.613Z,15.95
2023-05-14T16:20:26.157Z,15.87
2023-05-14T16:22:35.001Z,15.97
2023-05-14T16:24:42.960Z,16.00
2023-05-14T16:26:52.380Z,15.80
2023-05-14T16:29:08.548Z,15.83
2023-05-14T16:31:16.652Z,15.85
2023-05-14T16:33:26.214Z,16.06
2023-05-14T16:35:37.279Z,16.00
2023-05-14T16:37:47.260Z,16.04
2023-05-14T16:39:57.039Z,15.93
2023-05-14T16:42:05.053Z,15.83
2023-05-14T16:44:13.179Z,15.71
2023-05-14T16:46:21.094Z,15.88
2023-05-14T16:48:30.254Z,15.88
2023-05-14T16:50:41.179Z,16.04
2023-05-14T16:52:50.743Z,15.98
2023-05-14T16:55:05.400Z,16.12
2023-05-14T16:57:13.391Z,16.22
2023-05-14T16:59:24.417Z,16.28
2023-05-14T17:01:35.757Z,16.30
2023-05-14T17:03:46.902Z,16.27
2023-05-14T17:06:03.951Z,16.36
2023-05-14T17:08:11.995Z,16.28
2023-05-14T17:10:24.524Z,16.27
2023-05-14T17:12:32.399Z,16.27
2023-05-14T17:14:41.114Z,16.14
2023-05-14T17:16:49.735Z,16.14
2023-05-14T17:18:57.710Z,15.83
2023-05-14T17:21:08.856Z,15.86
2023-05-14T17:23:19.445Z,15.66
2023-05-14T17:25:28.725Z,15.62
2023-05-14T17:27:39.769Z,15.62
2023-05-14T17:29:50.680Z,15.56
2023-05-14T17:32:03.995Z,15.47
2023-05-14T17:34:14.951Z,15.26
2023-05-14T17:36:26.082Z,15.19
2023-05-14T17:38:37.215Z,15.04
2023-05-14T17:40:45.562Z,14.97
2023-05-14T17:42:53.657Z,14.92
2023-05-14T17:45:06.793Z,14.86
2023-05-14T17:47:14.949Z,14.79
2023-05-14T17:49:23.238Z,14.73
2023-05-14T17:51:38.240Z,14.73
2023-05-14T17:53:46.413Z,14.77
2023-05-14T17:55:54.422Z,14.87
2023-05-14T17:58:03.054Z,14.89
2023-05-14T18:00:15.909Z,14.85
2023-05-14T18:02:24.077Z,14.80
2023-05-14T18:04:32.308Z,14.66
2023-05-14T18:06:52.431Z,14.60
2023-05-14T18:09:02.406Z,14.58
2023-05-14T18:11:11.375Z,14.59
2023-05-14T18:13:19.196Z,14.56
2023-05-14T18:15:27.616Z,14.49
2023-05-14T18:17:36.274Z,14.45
2023-05-14T18:19:44.357Z,14.36
2023-05-14T18:21:55.899Z,14.22
2023-05-14T18:24:04.003Z,14.01
2023-05-14T18:26:12.014Z,13.90
2023-05-14T18:28:21.675Z,13.77
2023-05-14T18:30:31.123Z,13.60
2023-05-14T18:32:39.393Z,13.44
2023-05-14T18:34:48.723Z,13.35
2023-05-14T18:36:59.464Z,13.25
2023-05-14T18:39:07.597Z,13.11
2023-05-14T18:41:18.671Z,13.00
2023-05-14T18:43:26.973Z,12.87
2023-05-14T18:45:35.336Z,12.77
2023-05-14T18:47:48.015Z,12.67
2023-05-14T18:49:59.202Z,12.57
2023-05-14T18:52:10.097Z,12.56
2023-05-14T18:54:18.076Z,12.54
2023-05-14T18:56:26.379Z,12.50
2023-05-14T18:58:39.318Z,12.44
2023-05-14T19:00:47.466Z,12.34
2023-05-14T19:02:55.617Z,12.41
2023-05-14T19:05:06.461Z,12.32
2023-05-14T19:07:17.206Z,12.30
2023-05-14T19:09:26.836Z,12.30
2023-05-14T19:11:35.098Z,12.21
2023-05-14T19:13:46.851Z,12.23
2023-05-14T19:15:54.886Z,12.14
2023-05-14T19:18:03.387Z,12.10
2023-05-14T19:20:13.283Z,12.15
2023-05-14T19:22:24.034Z,12.11
2023-05-14T19:24:32.019Z,12.07
2023-05-14T19:26:40.057Z,12.04
2023-05-14T19:28:48.083Z,11.98
2023-05-14T19:30:57.472Z,11.94
2023-05-14T19:33:05.442Z,12.00
2023-05-14T19:35:13.955Z,11.97
2023-05-14T19:37:24.671Z,11.99
2023-05-14T19:39:32.545Z,12.05
2023-05-14T19:41:40.622Z,12.01
2023-05-14T19:43:48.555Z,12.01
2023-05-14T19:45:56.870Z,11.98
2023-05-14T19:48:05.068Z,11.97
2023-05-14T19:50:13.675Z,12.01
2023-05-14T19:52:24.370Z,12.02
2023-05-14T19:54:44.261Z,12.00
2023-05-14T19:56:53.756Z,11.99
2023-05-14T19:59:02.217Z,12.00
2023-05-14T20:01:10.255Z,11.90
2023-05-14T20:03:18.961Z,11.81
2023-05-14T20:05:29.261Z,11.77
2023-05-14T20:07:40.601Z,11.75
2023-05-14T20:09:54.013Z,11.69
2023-05-14T20:12:03.195Z,11.57
2023-05-14T20:14:11.358Z,11.49
2023-05-14T20:16:19.538Z,11.43
2023-05-14T20:18:28.258Z,11.33
2023-05-14T20:20:38.401Z,11.40
2023-05-14T20:22:53.431Z,11.36
2023-05-14T20:25:01.962Z,11.38
2023-05-14T20:27:12.708Z,11.47
2023-05-14T20:29:24.524Z,11.44
2023-05-14T20:31:32.914Z,11.30
2023-05-14T20:33:41.128Z,11.13
2023-05-14T20:35:49.494Z,11.06
2023-05-14T20:38:03.091Z,11.00
2023-05-14T20:40:15.499Z,11.06
2023-05-14T20:42:23.496Z,11.06
2023-05-14T20:44:32.761Z,11.03
2023-05-14T20:46:41.371Z,10.95
2023-05-14T20:48:50.236Z,10.95
2023-05-14T20:51:05.315Z,10.95
2023-05-14T20:53:16.073Z,10.97
2023-05-14T20:55:24.763Z,10.92
2023-05-14T20:57:33.526Z,10.86
2023-05-14T20:59:42.509Z,10.79
2023-05-14T21:01:54.611Z,10.76
2023-05-14T21:04:02.683Z,10.81
2023-05-14T21:06:11.329Z,10.77
2023-05-14T21:08:26.215Z,10.72
2023-05-14T21:10:35.460Z,10.81
2023-05-14T21:12:45.004Z,10.80
2023-05-14T21:14:53.333Z,10.85
2023-05-14T21:17:01.604Z,10.88
2023-05-14T21:19:09.815Z,10.90
2023-05-14T21:21:18.005Z,10.95
2023-05-14T21:23:28.539Z,10.96
2023-05-14T21:25:37.269Z,11.01
2023-05-14T21:27:45.234Z,11.17
2023-05-14T21:29:53.188Z,11.10
2023-05-14T21:32:04.504Z,11.22
2023-05-14T21:34:12.518Z,11.14
2023-05-14T21:36:21.361Z,11.00
2023-05-14T21:38:32.814Z,10.92
2023-05-14T21:40:41.295Z,10.90
2023-05-14T21:42:49.356Z,10.88
2023-05-14T21:44:57.188Z,10.89
2023-05-14T21:47:05.610Z,10.77
2023-05-14T21:49:13.545Z,10.75
2023-05-14T21:51:22.018Z,10.73
2023-05-14T21:53:32.777Z,10.73
2023-05-14T21:55:41.033Z,10.73
2023-05-14T21:57:49.385Z,10.68
2023-05-14T21:59:58.343Z,10.70
2023-05-14T22:02:07.859Z,10.82
2023-05-14T22:04:16.219Z,10.79
2023-05-14T22:06:24.874Z,10.75
2023-05-14T22:08:35.647Z,10.74
2023-05-14T22:10:45.285Z,10.72
2023-05-14T22:12:53.386Z,10.66
2023-05-14T22:15:01.556Z,10.86
2023-05-14T22:17:09.840Z,10.84
2023-05-14T22:19:19.463Z,10.81
2023-05-14T22:21:27.758Z,10.88
2023-05-14T22:23:38.486Z,10.83
2023-05-14T22:25:47.492Z,10.82
2023-05-14T22:27:55.497Z,10.82
2023-05-14T22:30:03.851Z,10.81
2023-05-14T22:32:11.746Z,10.74
2023-05-14T22:34:19.892Z,10.70
2023-05-14T22:36:28.054Z,10.70
2023-05-14T22:38:38.599Z,10.68
2023-05-14T22:40:46.446Z,10.75
2023-05-14T22:42:54.651Z,10.67
2023-05-14T22:45:02.629Z,10.59
2023-05-14T22:47:10.803Z,10.50
2023-05-14T22:49:19.083Z,10.43
2023-05-14T22:51:27.250Z,10.44
2023-05-14T22:53:39.406Z,10.40
2023-05-14T22:55:47.309Z,10.34
2023-05-14T22:57:55.472Z,10.14
2023-05-14T23:00:04.358Z,10.10
2023-05-14T23:02:13.198Z,10.11
2023-05-14T23:04:23.565Z,10.11
2023-05-14T23:06:32.796Z,9.95
2023-05-14T23:08:44.158Z,9.86
2023-05-14T23:10:52.276Z,9.79
2023-05-14T23:13:00.326Z,9.76
2023-05-14T23:15:09.548Z,9.71
2023-05-14T23:17:17.494Z,9.60
2023-05-14T23:19:25.512Z,9.57
2023-05-14T23:21:33.605Z,9.55
2023-05-14T23:23:45.586Z,9.61
2023-05-14T23:25:54.335Z,9.50
2023-05-14T23:28:02.801Z,9.37
2023-05-14T23:30:12.053Z,9.26
2023-05-14T23:32:20.025Z,9.15
2023-05-14T23:34:28.131Z,9.07
2023-05-14T23:36:36.105Z,9.02
2023-05-14T23:38:47.381Z,8.98
2023-05-14T23:40:55.604Z,9.07
2023-05-14T23:43:04.211Z,9.17
2023-05-14T23:45:13.245Z,9.25
2023-05-14T23:47:23.758Z,9.22
2023-05-14T23:49:31.799Z,9.29
2023-05-14T23:51:40.902Z,9.27
2023-05-14T23:53:53.899Z,9.28
2023-05-14T23:56:02.059Z,9.23
2023-05-14T23:58:17.389Z,9.31
